createdAt,value
2018-06-15T00:03:56.561Z,19.81
2018-06-15T00:08:35.206Z,19.92
2018-06-15T00:13:13.773Z,19.68
2018-06-15T00:17:52.300Z,19.24
2018-06-15T00:22:30.760Z,19.36
2018-06-15T00:27:12.902Z,19.61
2018-06-15T00:31:51.392Z,19.24
2018-06-15T00:36:29.941Z,19.62
2018-06-15T00:41:08.861Z,18.98
2018-06-15T00:45:47.806Z,18.88
2018-06-15T00:50:26.330Z,19.08
2018-06-15T00:55:09.470Z,19.28
2018-06-15T00:59:48.103Z,18.79
2018-06-15T01:04:30.150Z,18.72
2018-06-15T01:09:09.366Z,18.79
2018-06-15T01:13:47.863Z,19.10
2018-06-15T01:18:27.578Z,18.91
2018-06-15T01:23:06.092Z,18.77
2018-06-15T01:27:44.517Z,19.27
2018-06-15T01:32:23.090Z,19.10
2018-06-15T01:37:02.619Z,19.23
2018-06-15T01:41:41.161Z,18.75
2018-06-15T01:46:23.645Z,18.89
2018-06-15T01:51:02.114Z,19.02
2018-06-15T01:55:44.166Z,18.98
2018-06-15T02:00:22.712Z,18.35
2018-06-15T02:05:02.158Z,18.76
2018-06-15T02:09:40.585Z,18.40
2018-06-15T02:14:23.696Z,18.90
2018-06-15T02:19:02.389Z,18.54
2018-06-15T02:23:40.913Z,18.23
2018-06-15T02:28:19.534Z,18.41
2018-06-15T02:32:58.171Z,18.72
2018-06-15T02:37:37.652Z,18.28
2018-06-15T02:42:16.290Z,18.21
2018-06-15T02:46:54.978Z,18.59
2018-06-15T02:51:33.618Z,18.58
2018-06-15T02:56:13.265Z,18.36
2018-06-15T03:00:51.745Z,18.56
2018-06-15T03:05:31.400Z,18.99
2018-06-15T03:10:09.985Z,18.91
2018-06-15T03:14:49.716Z,18.70
2018-06-15T03:19:28.501Z,18.93
2018-06-15T03:24:10.911Z,18.90
2018-06-15T03:28:49.488Z,19.07
2018-06-15T03:33:28.137Z,19.25
2018-06-15T03:38:06.706Z,19.40
2018-06-15T03:42:45.155Z,19.28
2018-06-15T03:47:23.800Z,19.36
2018-06-15T03:52:02.331Z,19.55
2018-06-15T03:56:41.741Z,19.91
2018-06-15T04:01:20.226Z,19.92
2018-06-15T04:05:59.025Z,20.09
2018-06-15T04:10:37.657Z,20.35
2018-06-15T04:15:16.305Z,20.57
2018-06-15T04:19:54.817Z,20.72
2018-06-15T04:24:34.554Z,20.76
2018-06-15T04:29:13.143Z,20.89
2018-06-15T04:33:57.221Z,20.85
2018-06-15T04:38:35.817Z,21.44
2018-06-15T04:43:14.549Z,21.47
2018-06-15T04:47:54.449Z,21.54
2018-06-15T04:52:32.973Z,21.53
2018-06-15T04:57:11.765Z,21.26
2018-06-15T05:01:50.445Z,21.52
2018-06-15T05:06:29.090Z,21.06
2018-06-15T05:11:07.718Z,21.65
2018-06-15T05:15:49.533Z,21.89
2018-06-15T05:20:28.101Z,22.60
2018-06-15T05:25:07.803Z,21.99
2018-06-15T05:29:46.273Z,22.43
2018-06-15T05:34:27.522Z,22.31
2018-06-15T05:39:10.500Z,23.63
2018-06-15T05:43:52.329Z,23.20
2018-06-15T05:48:30.902Z,22.84
2018-06-15T05:53:09.540Z,23.64
2018-06-15T05:57:48.043Z,23.21
2018-06-15T06:08:01.080Z,24.37
2018-06-15T06:12:42.495Z,24.68
2018-06-15T06:17:24.397Z,24.45
2018-06-15T06:22:03.999Z,25.38
2018-06-15T06:26:43.741Z,25.63
2018-06-15T06:31:22.401Z,25.70
2018-06-15T06:36:01.051Z,23.94
2018-06-15T06:40:39.476Z,24.41
2018-06-15T06:45:21.874Z,24.64
2018-06-15T06:50:00.400Z,24.13
2018-06-15T06:54:39.614Z,23.29
2018-06-15T06:59:18.574Z,23.33
2018-06-15T07:04:00.463Z,25.40
2018-06-15T07:08:39.333Z,25.42
2018-06-15T07:13:18.502Z,25.18
2018-06-15T07:17:57.551Z,25.99
2018-06-15T07:22:36.190Z,25.95
2018-06-15T07:27:15.059Z,27.48
2018-06-15T07:31:53.827Z,27.24
2018-06-15T07:36:36.098Z,24.70
2018-06-15T07:41:14.650Z,27.14
2018-06-15T07:45:59.950Z,25.95
2018-06-15T07:50:38.933Z,26.13
2018-06-15T07:55:17.559Z,26.53
2018-06-15T07:59:56.137Z,28.45
2018-06-15T08:04:41.433Z,27.99
2018-06-15T08:09:19.923Z,26.08
2018-06-15T08:14:01.903Z,26.48
2018-06-15T08:18:40.601Z,29.32
2018-06-15T08:23:19.123Z,28.28
2018-06-15T08:27:57.721Z,29.41
2018-06-15T08:32:36.854Z,25.78
2018-06-15T08:37:15.471Z,27.64
2018-06-15T08:41:53.785Z,26.83
2018-06-15T08:46:35.781Z,26.44
2018-06-15T08:51:14.347Z,26.12
2018-06-15T08:55:53.199Z,26.94
2018-06-15T09:00:31.785Z,26.10
2018-06-15T09:05:14.439Z,26.40
2018-06-15T09:09:52.848Z,30.19
2018-06-15T09:14:32.369Z,30.90
2018-06-15T09:19:10.978Z,30.80
2018-06-15T09:23:53.399Z,30.24
2018-06-15T09:28:31.908Z,29.34
2018-06-15T09:33:11.718Z,30.10
2018-06-15T09:37:50.306Z,30.34
2018-06-15T09:42:29.746Z,31.28
2018-06-15T09:47:13.390Z,31.19
2018-06-15T09:51:52.099Z,30.90
2018-06-15T09:56:35.240Z,30.47
2018-06-15T10:01:13.899Z,30.64
2018-06-15T10:05:53.832Z,30.10
2018-06-15T10:10:32.371Z,30.89
2018-06-15T10:15:11.258Z,30.43
2018-06-15T10:19:49.837Z,30.20
2018-06-15T10:24:31.891Z,30.64
2018-06-15T10:29:10.502Z,30.76
2018-06-15T10:33:54.266Z,30.37
2018-06-15T10:38:32.986Z,29.82
2018-06-15T10:43:11.993Z,30.43
2018-06-15T10:47:50.384Z,30.35
2018-06-15T10:52:29.110Z,30.37
2018-06-15T10:57:07.911Z,30.27
2018-06-15T11:01:46.395Z,30.22
2018-06-15T11:06:25.233Z,30.13
2018-06-15T11:11:03.781Z,29.86
2018-06-15T11:15:43.055Z,29.66
2018-06-15T11:20:21.636Z,30.17
2018-06-15T11:25:04.078Z,30.14
2018-06-15T11:29:42.721Z,29.92
2018-06-15T11:34:22.290Z,29.58
2018-06-15T11:39:00.917Z,29.16
2018-06-15T11:43:39.625Z,28.75
2018-06-15T11:48:18.126Z,28.39
2018-06-15T11:53:00.173Z,28.58
2018-06-15T11:57:38.810Z,28.56
2018-06-15T12:02:17.447Z,28.33
2018-06-15T12:06:56.039Z,28.10
2018-06-15T12:11:34.701Z,28.11
2018-06-15T12:16:13.461Z,27.78
2018-06-15T12:20:52.109Z,27.57
2018-06-15T12:25:31.818Z,27.48
2018-06-15T12:30:10.479Z,27.99
2018-06-15T12:34:49.964Z,27.82
2018-06-15T12:39:28.563Z,27.69
2018-06-15T12:44:12.577Z,27.73
2018-06-15T12:48:51.200Z,27.23
2018-06-15T12:53:38.667Z,27.32
2018-06-15T12:58:17.249Z,26.67
2018-06-15T13:02:58.969Z,26.42
2018-06-15T13:07:37.488Z,26.58
2018-06-15T13:12:16.314Z,26.45
2018-06-15T13:16:54.860Z,26.64
2018-06-15T13:21:35.311Z,26.70
2018-06-15T13:26:17.265Z,26.39
2018-06-15T13:30:55.920Z,26.13
2018-06-15T13:35:37.678Z,26.03
2018-06-15T13:40:16.305Z,26.14
2018-06-15T13:45:00.739Z,26.44
2018-06-15T13:49:39.266Z,26.10
2018-06-15T13:54:22.970Z,25.79
2018-06-15T13:59:01.573Z,25.81
2018-06-15T14:03:43.317Z,26.07
2018-06-15T14:08:22.980Z,25.72
2018-06-15T14:13:02.747Z,26.06
2018-06-15T14:17:41.339Z,26.00
2018-06-15T14:22:25.137Z,26.06
2018-06-15T14:27:03.776Z,25.89
2018-06-15T14:31:42.359Z,25.66
2018-06-15T14:36:22.108Z,25.40
2018-06-15T14:41:00.793Z,25.28
2018-06-15T14:47:12.530Z,25.20
2018-06-15T14:51:51.212Z,25.33
2018-06-15T14:56:29.868Z,25.33
2018-06-15T15:01:08.517Z,25.15
2018-06-15T15:05:47.249Z,25.19
2018-06-15T15:10:25.919Z,25.02
2018-06-15T15:15:05.548Z,24.84
2018-06-15T15:19:44.158Z,24.93
2018-06-15T15:24:25.945Z,24.65
2018-06-15T15:29:05.330Z,24.47
2018-06-15T15:33:45.111Z,24.41
2018-06-15T15:38:23.705Z,24.38
2018-06-15T15:43:05.886Z,24.38
2018-06-15T15:47:44.526Z,24.31
2018-06-15T15:52:27.185Z,24.25
2018-06-15T15:57:05.831Z,24.27
2018-06-15T16:01:44.634Z,24.28
2018-06-15T16:06:23.255Z,24.25
2018-06-15T16:11:01.929Z,24.17
2018-06-15T16:15:41.473Z,24.09
2018-06-15T16:20:20.094Z,24.16
2018-06-15T16:24:59.687Z,24.04
2018-06-15T16:29:38.258Z,24.08
2018-06-15T16:34:17.894Z,24.12
2018-06-15T16:38:56.391Z,24.01
2018-06-15T16:43:40.247Z,24.02
2018-06-15T16:48:18.883Z,23.86
2018-06-15T16:53:01.385Z,23.71
2018-06-15T16:57:39.998Z,23.66
2018-06-15T17:02:22.270Z,23.64
2018-06-15T17:07:00.792Z,23.51
2018-06-15T17:11:39.495Z,23.64
2018-06-15T17:16:18.178Z,23.45
2018-06-15T17:20:56.729Z,23.41
2018-06-15T17:25:38.399Z,23.26
2018-06-15T17:35:17.251Z,23.32
2018-06-15T17:40:12.814Z,23.49
2018-06-15T17:50:56.263Z,23.56
2018-06-15T17:55:45.837Z,23.49
2018-06-15T18:00:24.518Z,23.37
2018-06-15T18:10:32.344Z,23.02
2018-06-15T18:15:11.903Z,22.93
2018-06-15T18:19:51.123Z,22.89
2018-06-15T18:24:34.618Z,22.97
2018-06-15T18:29:13.180Z,22.79
2018-06-15T18:33:53.031Z,22.61
2018-06-15T18:38:32.667Z,22.69
2018-06-15T18:43:19.507Z,22.74
2018-06-15T18:47:58.808Z,22.66
2018-06-15T18:52:40.786Z,22.34
2018-06-15T18:57:19.388Z,22.38
2018-06-15T19:02:01.704Z,22.52
2018-06-15T19:06:40.339Z,22.26
2018-06-15T19:11:19.677Z,22.14
2018-06-15T19:15:58.205Z,22.24
2018-06-15T19:20:36.773Z,22.37
2018-06-15T19:25:15.596Z,22.48
2018-06-15T19:29:54.566Z,22.47
2018-06-15T19:34:37.187Z,22.07
2018-06-15T19:39:15.755Z,22.02
2018-06-15T19:43:57.570Z,22.16
2018-06-15T19:48:36.066Z,22.35
2018-06-15T19:53:14.945Z,22.42
2018-06-15T19:57:53.447Z,21.94
2018-06-15T20:02:32.215Z,22.00
2018-06-15T20:07:17.381Z,21.73
2018-06-15T20:12:02.280Z,22.05
2018-06-15T20:16:45.342Z,21.70
2018-06-15T20:21:25.070Z,21.50
2018-06-15T20:26:03.905Z,21.65
2018-06-15T20:30:42.476Z,21.67
2018-06-15T20:35:24.914Z,21.57
2018-06-15T20:40:03.487Z,21.15
2018-06-15T20:44:45.335Z,21.49
2018-06-15T20:49:23.803Z,21.42
2018-06-15T20:54:13.852Z,21.40
2018-06-15T20:58:52.254Z,21.46
2018-06-15T21:03:31.787Z,21.46
2018-06-15T21:08:10.439Z,21.08
2018-06-15T21:12:49.897Z,21.16
2018-06-15T21:17:28.418Z,21.46
2018-06-15T21:22:07.235Z,21.42
2018-06-15T21:26:45.762Z,20.61
2018-06-15T21:31:24.334Z,21.10
2018-06-15T21:36:02.906Z,21.27
2018-06-15T21:40:41.552Z,21.25
2018-06-15T21:45:20.146Z,21.05
2018-06-15T21:49:58.623Z,21.21
2018-06-15T21:54:40.293Z,21.19
2018-06-15T21:59:18.779Z,21.17
2018-06-15T22:04:00.756Z,21.15
2018-06-15T22:08:39.178Z,21.16
2018-06-15T22:13:20.805Z,21.32
2018-06-15T22:17:59.310Z,21.05
2018-06-15T22:22:42.411Z,20.94
2018-06-15T22:27:20.975Z,20.97
2018-06-15T22:32:00.793Z,21.06
2018-06-15T22:36:39.997Z,20.83
2018-06-15T22:41:18.574Z,20.81
2018-06-15T22:45:57.072Z,20.78
2018-06-15T22:50:35.580Z,20.87
2018-06-15T22:55:14.722Z,20.85
2018-06-15T22:59:53.239Z,20.74
2018-06-15T23:04:35.263Z,20.71
2018-06-15T23:09:13.759Z,20.67
2018-06-15T23:13:52.516Z,20.84
2018-06-15T23:18:31.006Z,20.62
2018-06-15T23:23:09.730Z,20.59
2018-06-15T23:27:48.354Z,20.55
2018-06-15T23:32:27.065Z,20.76
2018-06-15T23:37:05.530Z,20.59
2018-06-15T23:41:47.442Z,20.48
2018-06-15T23:46:26.066Z,20.50
2018-06-15T23:51:07.625Z,20.49
2018-06-15T23:55:46.132Z,20.40
